createdAt,value
2023-04-04T00:00:30.557Z,1.20
2023-04-04T00:02:34.404Z,0.90
2023-04-04T00:04:36.073Z,1.58
2023-04-04T00:06:37.823Z,1.17
2023-04-04T00:08:48.079Z,1.20
2023-04-04T00:10:49.698Z,1.15
2023-04-04T00:12:51.482Z,1.10
2023-04-04T00:14:56.218Z,1.33
2023-04-04T00:16:57.675Z,1.08
2023-04-04T00:19:00.207Z,1.10
2023-04-04T00:21:01.681Z,1.17
2023-04-04T00:23:03.259Z,1.20
2023-04-04T00:25:09.897Z,1.38
2023-04-04T00:27:11.474Z,1.00
2023-04-04T00:29:13.215Z,0.95
2023-04-04T00:31:15.221Z,1.17
2023-04-04T00:33:17.334Z,1.17
2023-04-04T00:35:19.155Z,1.10
2023-04-04T00:37:21.842Z,1.30
2023-04-04T00:39:27.133Z,1.10
2023-04-04T00:41:28.927Z,1.30
2023-04-04T00:43:30.559Z,1.33
2023-04-04T00:45:34.337Z,0.95
2023-04-04T00:47:37.848Z,1.60
2023-04-04T00:49:39.465Z,1.23
2023-04-04T00:51:40.918Z,1.10
2023-04-04T00:53:46.260Z,1.13
2023-04-04T00:55:47.862Z,1.10
2023-04-04T00:57:55.498Z,0.98
2023-04-04T00:59:59.174Z,1.25
2023-04-04T01:02:01.145Z,1.20
2023-04-04T01:04:03.391Z,1.00
2023-04-04T01:06:04.873Z,1.23
2023-04-04T01:08:09.889Z,0.90
2023-04-04T01:10:12.180Z,1.00
2023-04-04T01:12:14.277Z,0.93
2023-04-04T01:14:16.192Z,1.17
2023-04-04T01:16:23.432Z,1.27
2023-04-04T01:18:26.764Z,1.20
2023-04-04T01:20:32.545Z,1.25
2023-04-04T01:22:34.944Z,0.88
2023-04-04T01:24:37.045Z,1.38
2023-04-04T01:26:41.292Z,1.30
2023-04-04T01:28:42.765Z,1.20
2023-04-04T01:30:47.518Z,1.20
2023-04-04T01:32:56.581Z,1.30
2023-04-04T01:35:08.810Z,1.13
2023-04-04T01:37:14.025Z,1.10
2023-04-04T01:39:24.819Z,1.35
2023-04-04T01:41:29.763Z,1.20
2023-04-04T01:43:40.315Z,1.10
2023-04-04T01:45:42.064Z,1.17
2023-04-04T01:47:47.313Z,1.20
2023-04-04T01:49:56.526Z,1.00
2023-04-04T01:51:58.946Z,1.15
2023-04-04T01:54:04.696Z,1.10
2023-04-04T01:56:16.574Z,1.23
2023-04-04T01:58:19.463Z,1.20
2023-04-04T02:00:23.500Z,1.10
2023-04-04T02:02:25.593Z,1.35
2023-04-04T02:04:30.051Z,1.27
2023-04-04T02:06:31.666Z,1.30
2023-04-04T02:08:33.396Z,1.20
2023-04-04T02:10:35.401Z,1.10
2023-04-04T02:12:42.860Z,1.20
2023-04-04T02:14:49.622Z,1.10
2023-04-04T02:16:51.690Z,1.10
2023-04-04T02:18:55.690Z,1.08
2023-04-04T02:21:00.346Z,0.90
2023-04-04T02:23:01.800Z,1.50
2023-04-04T02:25:08.191Z,1.20
2023-04-04T02:27:10.079Z,1.10
2023-04-04T02:29:12.753Z,1.10
2023-04-04T02:31:14.241Z,1.13
2023-04-04T02:33:18.105Z,1.10
2023-04-04T02:35:20.681Z,0.98
2023-04-04T02:37:22.144Z,0.90
2023-04-04T02:39:26.676Z,1.38
2023-04-04T02:41:28.949Z,1.00
2023-04-04T02:43:38.508Z,1.00
2023-04-04T02:45:42.750Z,1.10
2023-04-04T02:47:57.267Z,1.20
2023-04-04T02:50:10.743Z,1.73
2023-04-04T02:52:13.435Z,1.20
2023-04-04T02:54:18.566Z,0.90
2023-04-04T02:56:22.140Z,1.13
2023-04-04T02:58:25.735Z,1.38
2023-04-04T03:00:27.473Z,1.10
2023-04-04T03:02:29.015Z,0.98
2023-04-04T03:04:30.585Z,1.02
2023-04-04T03:06:33.733Z,1.10
2023-04-04T03:08:35.871Z,1.20
2023-04-04T03:10:37.415Z,1.30
2023-04-04T03:12:39.133Z,1.15
2023-04-04T03:14:43.915Z,1.60
2023-04-04T03:16:49.888Z,1.30
2023-04-04T03:18:51.568Z,1.50
2023-04-04T03:20:55.489Z,1.30
2023-04-04T03:22:57.773Z,1.42
2023-04-04T03:24:59.259Z,1.25
2023-04-04T03:27:01.546Z,1.35
2023-04-04T03:29:04.356Z,1.40
2023-04-04T03:31:06.613Z,1.35
2023-04-04T03:33:11.393Z,1.67
2023-04-04T03:35:13.564Z,1.40
2023-04-04T03:37:16.137Z,1.50
2023-04-04T03:39:17.910Z,1.40
2023-04-04T03:41:21.257Z,1.08
2023-04-04T03:43:27.067Z,1.35
2023-04-04T03:45:49.329Z,1.40
2023-04-04T03:47:51.666Z,1.20
2023-04-04T03:49:53.456Z,1.30
2023-04-04T03:51:55.092Z,1.10
2023-04-04T03:54:01.171Z,1.30
2023-04-04T03:56:04.622Z,1.40
2023-04-04T03:58:06.142Z,1.40
2023-04-04T04:00:08.200Z,1.30
2023-04-04T04:02:15.457Z,1.35
2023-04-04T04:04:17.062Z,1.13
2023-04-04T04:06:20.861Z,1.20
2023-04-04T04:08:25.521Z,1.55
2023-04-04T04:10:31.910Z,2.13
2023-04-04T04:12:33.468Z,1.92
2023-04-04T04:14:34.901Z,2.03
2023-04-04T04:16:39.624Z,2.05
2023-04-04T04:18:42.400Z,1.80
2023-04-04T04:20:49.147Z,2.00
2023-04-04T04:22:53.351Z,1.75
2023-04-04T04:24:55.800Z,1.52
2023-04-04T04:26:57.249Z,1.75
2023-04-04T04:28:58.801Z,1.42
2023-04-04T04:31:08.355Z,1.50
2023-04-04T04:33:21.256Z,2.00
2023-04-04T04:35:30.720Z,1.73
2023-04-04T04:37:33.593Z,1.70
2023-04-04T04:39:39.570Z,1.73
2023-04-04T04:41:54.970Z,1.60
2023-04-04T04:43:58.037Z,1.95
2023-04-04T04:46:04.312Z,2.03
2023-04-04T04:48:07.039Z,2.38
2023-04-04T04:50:16.253Z,3.33
2023-04-04T04:52:20.532Z,4.63
2023-04-04T04:54:22.020Z,5.20
2023-04-04T04:56:28.971Z,3.70
2023-04-04T04:58:38.542Z,3.17
2023-04-04T05:00:44.447Z,2.13
2023-04-04T05:02:51.026Z,1.88
2023-04-04T05:05:06.788Z,1.83
2023-04-04T05:07:09.752Z,1.67
2023-04-04T05:09:12.492Z,1.70
2023-04-04T05:11:14.303Z,1.70
2023-04-04T05:13:16.563Z,1.75
2023-04-04T05:15:21.893Z,1.60
2023-04-04T05:17:26.153Z,1.40
2023-04-04T05:19:31.605Z,1.90
2023-04-04T05:21:34.256Z,1.50
2023-04-04T05:23:40.234Z,1.50
2023-04-04T05:25:43.581Z,1.65
2023-04-04T05:27:48.874Z,1.65
2023-04-04T05:29:53.730Z,1.80
2023-04-04T05:31:56.771Z,1.65
2023-04-04T05:33:59.204Z,1.60
2023-04-04T05:36:05.419Z,1.90
2023-04-04T05:38:09.822Z,2.25
2023-04-04T05:40:11.734Z,2.78
2023-04-04T05:42:16.574Z,3.60
2023-04-04T05:44:23.065Z,3.35
2023-04-04T05:46:24.647Z,3.83
2023-04-04T05:48:29.281Z,3.95
2023-04-04T05:50:36.790Z,3.60
2023-04-04T05:52:40.131Z,3.40
2023-04-04T05:54:49.938Z,3.47
2023-04-04T05:57:01.919Z,3.00
2023-04-04T05:59:26.125Z,3.25
2023-04-04T06:01:35.412Z,3.00
2023-04-04T06:03:43.834Z,2.92
2023-04-04T06:05:52.616Z,3.20
2023-04-04T06:07:54.570Z,3.28
2023-04-04T06:09:56.397Z,3.13
2023-04-04T06:11:57.986Z,2.47
2023-04-04T06:13:59.475Z,2.28
2023-04-04T06:16:01.288Z,1.80
2023-04-04T06:18:02.899Z,2.15
2023-04-04T06:20:12.268Z,2.10
2023-04-04T06:22:16.098Z,2.20
2023-04-04T06:24:24.793Z,2.40
2023-04-04T06:26:27.112Z,2.58
2023-04-04T06:28:31.564Z,2.53
2023-04-04T06:30:36.462Z,2.50
2023-04-04T06:32:39.892Z,2.38
2023-04-04T06:34:42.398Z,2.30
2023-04-04T06:36:45.390Z,2.35
2023-04-04T06:38:48.177Z,2.20
2023-04-04T06:40:53.511Z,1.95
2023-04-04T06:42:58.125Z,2.00
2023-04-04T06:45:05.652Z,1.95
2023-04-04T06:47:08.503Z,1.80
2023-04-04T06:49:10.030Z,2.38
2023-04-04T06:51:12.092Z,2.00
2023-04-04T06:53:18.320Z,2.10
2023-04-04T06:55:19.904Z,1.77
2023-04-04T06:57:21.467Z,2.13
2023-04-04T06:59:23.102Z,2.00
2023-04-04T07:01:24.746Z,2.13
2023-04-04T07:03:27.282Z,1.77
2023-04-04T07:05:29.618Z,2.05
2023-04-04T07:07:31.218Z,1.75
2023-04-04T07:09:32.696Z,1.77
2023-04-04T07:11:34.296Z,2.10
2023-04-04T07:13:35.962Z,1.80
2023-04-04T07:15:37.492Z,1.90
2023-04-04T07:17:39.234Z,1.90
2023-04-04T07:19:40.635Z,2.15
2023-04-04T07:21:45.256Z,1.83
2023-04-04T07:23:47.195Z,1.85
2023-04-04T07:25:48.866Z,1.60
2023-04-04T07:27:59.589Z,2.00
2023-04-04T07:30:11.196Z,1.63
2023-04-04T07:32:15.097Z,1.73
2023-04-04T07:34:17.058Z,2.28
2023-04-04T07:36:18.550Z,1.88
2023-04-04T07:38:20.477Z,2.08
2023-04-04T07:40:22.125Z,1.88
2023-04-04T07:42:23.582Z,2.20
2023-04-04T07:44:25.044Z,1.83
2023-04-04T07:46:27.892Z,1.90
2023-04-04T07:48:29.555Z,2.40
2023-04-04T07:50:33.847Z,1.88
2023-04-04T07:52:35.720Z,1.80
2023-04-04T07:54:37.272Z,1.65
2023-04-04T07:56:38.835Z,1.83
2023-04-04T07:58:40.278Z,1.80
2023-04-04T08:00:44.569Z,1.80
2023-04-04T08:02:46.307Z,1.80
2023-04-04T08:04:47.926Z,1.60
2023-04-04T08:06:53.088Z,1.35
2023-04-04T08:08:54.629Z,1.50
2023-04-04T08:10:56.144Z,1.70
2023-04-04T08:12:57.584Z,1.65
2023-04-04T08:14:59.252Z,2.00
2023-04-04T08:17:04.612Z,1.48
2023-04-04T08:19:08.996Z,1.55
2023-04-04T08:21:10.496Z,1.60
2023-04-04T08:23:13.056Z,1.35
2023-04-04T08:25:14.667Z,1.60
2023-04-04T08:27:16.906Z,1.70
2023-04-04T08:29:18.635Z,1.38
2023-04-04T08:31:20.158Z,1.60
2023-04-04T08:33:25.680Z,1.60
2023-04-04T08:35:33.159Z,1.20
2023-04-04T08:37:35.927Z,1.50
2023-04-04T08:39:42.175Z,1.30
2023-04-04T08:41:45.625Z,1.50
2023-04-04T08:43:54.176Z,1.42
2023-04-04T08:45:56.591Z,1.50
2023-04-04T08:47:59.422Z,1.50
2023-04-04T08:50:05.633Z,1.60
2023-04-04T08:52:08.823Z,1.65
2023-04-04T08:54:12.944Z,1.60
2023-04-04T08:56:14.440Z,1.33
2023-04-04T08:58:17.410Z,1.50
2023-04-04T09:00:21.428Z,1.58
2023-04-04T09:02:48.450Z,1.65
2023-04-04T09:05:05.368Z,1.42
2023-04-04T09:07:12.617Z,1.50
2023-04-04T09:09:16.567Z,1.58
2023-04-04T09:11:20.607Z,1.77
2023-04-04T09:13:22.874Z,1.60
2023-04-04T09:15:24.890Z,1.50
2023-04-04T09:17:26.713Z,2.13
2023-04-04T09:19:28.348Z,1.77
2023-04-04T09:21:33.412Z,1.60
2023-04-04T09:23:34.875Z,1.60
2023-04-04T09:25:37.662Z,1.73
2023-04-04T09:27:39.112Z,2.00
2023-04-04T09:29:41.951Z,1.70
2023-04-04T09:31:46.690Z,1.60
2023-04-04T09:33:50.064Z,2.00
2023-04-04T09:35:55.655Z,2.03
2023-04-04T09:37:57.773Z,1.65
2023-04-04T09:39:59.510Z,1.67
2023-04-04T09:42:01.745Z,1.88
2023-04-04T09:44:04.025Z,1.70
2023-04-04T09:46:07.973Z,1.65
2023-04-04T09:48:10.232Z,1.63
2023-04-04T09:50:21.708Z,1.58
2023-04-04T09:52:23.114Z,1.40
2023-04-04T09:54:30.125Z,1.70
2023-04-04T09:56:38.909Z,1.65
2023-04-04T09:58:52.421Z,1.83
2023-04-04T10:01:02.717Z,1.65
2023-04-04T10:03:08.304Z,1.70
2023-04-04T10:05:10.448Z,1.80
2023-04-04T10:07:14.888Z,2.10
2023-04-04T10:09:16.544Z,1.70
2023-04-04T10:11:30.339Z,1.90
2023-04-04T10:13:35.656Z,1.85
2023-04-04T10:15:42.778Z,2.03
2023-04-04T10:17:47.157Z,1.95
2023-04-04T10:19:49.819Z,1.70
2023-04-04T10:21:51.874Z,1.98
2023-04-04T10:24:00.062Z,1.70
2023-04-04T10:26:03.935Z,2.05
2023-04-04T10:28:05.838Z,2.58
2023-04-04T10:30:08.088Z,2.65
2023-04-04T10:32:17.372Z,2.30
2023-04-04T10:34:30.470Z,2.50
2023-04-04T10:36:39.316Z,2.13
2023-04-04T10:38:44.939Z,2.60
2023-04-04T10:40:53.991Z,2.20
2023-04-04T10:42:57.637Z,2.47
2023-04-04T10:45:19.388Z,2.40
2023-04-04T10:47:23.344Z,2.40
2023-04-04T10:49:27.842Z,2.53
2023-04-04T10:51:32.627Z,2.88
2023-04-04T10:53:36.014Z,2.20
2023-04-04T10:55:39.014Z,2.28
2023-04-04T10:57:43.203Z,2.30
2023-04-04T11:00:07.971Z,2.70
2023-04-04T11:02:09.609Z,2.50
2023-04-04T11:04:20.736Z,2.22
2023-04-04T11:06:24.393Z,2.38
2023-04-04T11:08:28.651Z,2.03
2023-04-04T11:10:33.447Z,2.15
2023-04-04T11:12:45.690Z,2.33
2023-04-04T11:14:58.965Z,2.20
2023-04-04T11:17:00.744Z,2.20
2023-04-04T11:19:12.706Z,2.40
2023-04-04T11:21:27.341Z,2.33
2023-04-04T11:23:58.470Z,2.10
2023-04-04T11:26:00.909Z,2.30
2023-04-04T11:28:12.692Z,2.13
2023-04-04T11:30:14.902Z,2.65
2023-04-04T11:32:59.779Z,2.38
2023-04-04T11:35:06.368Z,2.58
2023-04-04T11:37:21.899Z,3.10
2023-04-04T11:39:27.082Z,3.35
2023-04-04T11:41:53.044Z,3.40
2023-04-04T11:43:54.651Z,3.95
2023-04-04T11:46:09.385Z,2.80
2023-04-04T11:48:13.918Z,2.63
2023-04-04T11:50:16.826Z,2.92
2023-04-04T11:52:18.659Z,2.80
2023-04-04T11:54:20.437Z,2.30
2023-04-04T11:56:21.958Z,2.10
2023-04-04T11:58:26.510Z,2.00
2023-04-04T12:00:42.396Z,2.55
2023-04-04T12:02:44.344Z,2.30
2023-04-04T12:04:47.277Z,2.22
2023-04-04T12:06:58.711Z,1.90
2023-04-04T12:09:03.963Z,2.00
2023-04-04T12:11:11.519Z,2.08
2023-04-04T12:13:13.159Z,2.05
2023-04-04T12:15:17.820Z,1.90
2023-04-04T12:17:19.621Z,2.10
2023-04-04T12:19:25.186Z,2.25
2023-04-04T12:21:26.766Z,2.28
2023-04-04T12:23:32.845Z,2.00
2023-04-04T12:25:34.894Z,2.00
2023-04-04T12:27:36.892Z,2.00
2023-04-04T12:29:38.678Z,1.85
2023-04-04T12:31:46.885Z,1.73
2023-04-04T12:33:48.523Z,1.77
2023-04-04T12:35:54.941Z,1.83
2023-04-04T12:38:07.666Z,1.85
2023-04-04T12:40:10.756Z,1.83
2023-04-04T12:42:13.677Z,2.08
2023-04-04T12:44:27.798Z,2.20
2023-04-04T12:46:39.833Z,2.33
2023-04-04T12:48:41.760Z,2.78
2023-04-04T12:50:57.644Z,2.40
2023-04-04T12:53:18.488Z,2.35
2023-04-04T12:55:23.921Z,2.40
2023-04-04T12:57:27.475Z,2.15
2023-04-04T12:59:30.287Z,2.22
2023-04-04T13:01:32.791Z,2.78
2023-04-04T13:03:37.957Z,2.65
2023-04-04T13:05:40.387Z,3.00
2023-04-04T13:07:45.144Z,2.90
2023-04-04T13:09:58.988Z,2.40
2023-04-04T13:12:05.782Z,2.55
2023-04-04T13:14:07.551Z,2.10
2023-04-04T13:16:42.774Z,2.30
2023-04-04T13:18:44.325Z,2.45
2023-04-04T13:20:45.993Z,2.47
2023-04-04T13:22:47.528Z,2.40
2023-04-04T13:24:49.054Z,2.35
2023-04-04T13:26:50.726Z,2.58
2023-04-04T13:28:55.116Z,2.05
2023-04-04T13:30:56.689Z,2.30
2023-04-04T13:32:58.127Z,2.35
2023-04-04T13:35:02.313Z,1.90
2023-04-04T13:37:05.746Z,2.05
2023-04-04T13:39:07.508Z,2.15
2023-04-04T13:41:08.903Z,1.70
2023-04-04T13:43:15.086Z,1.90
2023-04-04T13:45:16.907Z,2.30
2023-04-04T13:47:18.393Z,2.00
2023-04-04T13:49:19.846Z,2.15
2023-04-04T13:51:21.502Z,2.05
2023-04-04T13:53:23.086Z,2.03
2023-04-04T13:55:27.841Z,2.42
2023-04-04T13:57:29.496Z,2.13
2023-04-04T13:59:34.316Z,2.65
2023-04-04T14:01:40.696Z,2.63
2023-04-04T14:03:42.635Z,2.95
2023-04-04T14:05:44.703Z,2.67
2023-04-04T14:07:49.219Z,2.58
2023-04-04T14:09:50.899Z,2.70
2023-04-04T14:11:52.356Z,2.20
2023-04-04T14:13:53.999Z,2.08
2023-04-04T14:15:59.214Z,2.20
2023-04-04T14:18:00.840Z,2.35
2023-04-04T14:20:03.874Z,2.67
2023-04-04T14:22:06.400Z,2.05
2023-04-04T14:24:07.946Z,2.28
2023-04-04T14:26:14.203Z,2.20
2023-04-04T14:28:18.959Z,2.20
2023-04-04T14:30:20.868Z,2.58
2023-04-04T14:32:35.112Z,2.35
2023-04-04T14:34:37.132Z,2.13
2023-04-04T14:36:38.679Z,2.13
2023-04-04T14:38:40.254Z,3.05
2023-04-04T14:40:41.864Z,3.22
2023-04-04T14:42:43.316Z,2.67
2023-04-04T14:44:45.112Z,2.95
2023-04-04T14:46:46.744Z,2.90
2023-04-04T14:48:48.240Z,2.63
2023-04-04T14:50:50.276Z,2.78
2023-04-04T14:52:57.871Z,2.90
2023-04-04T14:55:05.507Z,2.55
2023-04-04T14:57:09.311Z,2.35
2023-04-04T14:59:10.928Z,1.95
2023-04-04T15:01:12.740Z,2.35
2023-04-04T15:03:17.007Z,2.05
2023-04-04T15:05:22.266Z,2.08
2023-04-04T15:07:24.235Z,2.08
2023-04-04T15:09:27.958Z,2.20
2023-04-04T15:11:36.880Z,2.25
2023-04-04T15:13:41.127Z,2.10
2023-04-04T15:15:45.059Z,2.25
2023-04-04T15:17:46.731Z,1.90
2023-04-04T15:19:48.330Z,2.40
2023-04-04T15:21:55.173Z,2.20
2023-04-04T15:23:56.697Z,2.72
2023-04-04T15:25:58.222Z,2.25
2023-04-04T15:28:01.095Z,2.15
2023-04-04T15:30:02.581Z,2.67
2023-04-04T15:32:04.089Z,2.28
2023-04-04T15:34:05.654Z,2.75
2023-04-04T15:36:10.453Z,2.60
2023-04-04T15:38:12.033Z,2.30
2023-04-04T15:40:16.450Z,2.00
2023-04-04T15:42:18.039Z,2.15
2023-04-04T15:44:20.665Z,2.28
2023-04-04T15:46:22.160Z,2.60
2023-04-04T15:48:23.736Z,2.30
2023-04-04T15:50:25.425Z,2.53
2023-04-04T15:52:28.648Z,2.50
2023-04-04T15:54:31.434Z,2.50
2023-04-04T15:56:33.018Z,2.10
2023-04-04T15:58:34.633Z,2.17
2023-04-04T16:00:37.600Z,2.50
2023-04-04T16:02:39.339Z,2.40
2023-04-04T16:04:40.910Z,2.50
2023-04-04T16:06:42.324Z,2.20
2023-04-04T16:08:46.820Z,2.30
2023-04-04T16:10:48.327Z,2.20
2023-04-04T16:12:49.776Z,2.03
2023-04-04T16:14:51.222Z,2.42
2023-04-04T16:16:52.834Z,2.42
2023-04-04T16:18:54.322Z,3.08
2023-04-04T16:20:56.185Z,3.00
2023-04-04T16:22:59.794Z,3.20
2023-04-04T16:25:01.316Z,2.85
2023-04-04T16:27:02.767Z,3.00
2023-04-04T16:29:04.302Z,3.08
2023-04-04T16:31:06.527Z,2.53
2023-04-04T16:33:08.115Z,2.92
2023-04-04T16:35:12.314Z,3.15
2023-04-04T16:37:15.841Z,2.75
2023-04-04T16:39:47.309Z,2.60
2023-04-04T16:42:48.026Z,2.20
2023-04-04T16:45:11.713Z,2.25
2023-04-04T16:47:13.383Z,2.20
2023-04-04T16:49:32.232Z,2.42
2023-04-04T16:54:13.672Z,2.30
2023-04-04T16:56:16.402Z,2.38
2023-04-04T16:58:21.693Z,2.30
2023-04-04T17:00:24.050Z,2.10
2023-04-04T17:02:26.588Z,2.40
2023-04-04T17:04:28.143Z,2.33
2023-04-04T17:06:29.959Z,2.42
2023-04-04T17:08:32.050Z,2.28
2023-04-04T17:10:34.336Z,2.30
2023-04-04T17:12:39.292Z,2.20
2023-04-04T17:14:40.793Z,1.92
2023-04-04T17:16:43.566Z,1.92
2023-04-04T17:18:45.272Z,2.00
2023-04-04T17:20:51.164Z,2.75
2023-04-04T17:22:53.969Z,2.30
2023-04-04T17:24:55.658Z,2.25
2023-04-04T17:26:58.332Z,2.17
2023-04-04T17:29:02.936Z,2.58
2023-04-04T17:31:04.745Z,2.60
2023-04-04T17:33:09.007Z,2.58
2023-04-04T17:35:10.447Z,2.85
2023-04-04T17:37:18.886Z,2.97
2023-04-04T17:39:20.556Z,3.08
2023-04-04T17:41:22.069Z,3.47
2023-04-04T17:43:23.702Z,3.60
2023-04-04T17:45:29.483Z,4.50
2023-04-04T17:47:33.716Z,4.45
2023-04-04T17:49:38.161Z,4.25
2023-04-04T17:51:42.704Z,4.80
2023-04-04T17:53:47.769Z,4.82
2023-04-04T17:55:49.908Z,5.40
2023-04-04T17:57:53.807Z,4.60
2023-04-04T17:59:55.399Z,4.40
2023-04-04T18:02:00.016Z,4.65
2023-04-04T18:04:02.601Z,3.92
2023-04-04T18:06:09.472Z,4.70
2023-04-04T18:08:11.153Z,3.47
2023-04-04T18:10:12.895Z,3.67
2023-04-04T18:12:20.685Z,3.30
2023-04-04T18:14:24.699Z,3.47
2023-04-04T18:16:29.523Z,3.03
2023-04-04T18:18:31.495Z,3.50
2023-04-04T18:20:35.245Z,3.08
2023-04-04T18:22:45.275Z,3.30
2023-04-04T18:24:48.682Z,2.88
2023-04-04T18:26:52.179Z,2.80
2023-04-04T18:28:56.671Z,2.92
2023-04-04T18:30:58.547Z,2.92
2023-04-04T18:33:00.191Z,2.75
2023-04-04T18:35:01.996Z,2.33
2023-04-04T18:37:03.537Z,2.80
2023-04-04T18:39:09.097Z,2.80
2023-04-04T18:41:12.321Z,2.65
2023-04-04T18:43:13.939Z,2.80
2023-04-04T18:45:16.775Z,3.22
2023-04-04T18:47:18.815Z,3.50
2023-04-04T18:49:20.488Z,3.42
2023-04-04T18:51:27.660Z,3.33
2023-04-04T18:53:29.420Z,3.30
2023-04-04T18:55:31.839Z,3.08
2023-04-04T18:57:34.382Z,3.10
2023-04-04T18:59:36.130Z,3.35
2023-04-04T19:01:39.057Z,2.80
2023-04-04T19:03:43.070Z,2.53
2023-04-04T19:05:48.846Z,2.60
2023-04-04T19:07:53.347Z,2.88
2023-04-04T19:09:56.269Z,3.10
2023-04-04T19:11:57.816Z,3.03
2023-04-04T19:14:00.196Z,2.88
2023-04-04T19:16:03.387Z,2.50
2023-04-04T19:18:05.290Z,2.50
2023-04-04T19:20:10.639Z,2.50
2023-04-04T19:22:12.285Z,2.60
2023-04-04T19:24:14.883Z,1.98
2023-04-04T19:26:18.269Z,2.30
2023-04-04T19:28:21.866Z,2.33
2023-04-04T19:30:44.798Z,2.50
2023-04-04T19:32:46.920Z,2.60
2023-04-04T19:34:49.160Z,2.72
2023-04-04T19:36:50.663Z,2.63
2023-04-04T19:38:55.632Z,2.30
2023-04-04T19:41:26.350Z,2.35
2023-04-04T19:43:30.973Z,2.35
2023-04-04T19:45:48.968Z,1.98
2023-04-04T19:47:50.554Z,2.53
2023-04-04T19:49:53.224Z,3.00
2023-04-04T19:51:58.599Z,3.40
2023-04-04T19:54:00.451Z,3.67
2023-04-04T19:56:08.513Z,3.63
2023-04-04T19:58:21.044Z,3.25
2023-04-04T20:00:24.075Z,2.92
2023-04-04T20:02:32.976Z,2.67
2023-04-04T20:04:34.707Z,2.50
2023-04-04T20:06:40.030Z,2.40
2023-04-04T20:08:48.864Z,2.42
2023-04-04T20:10:53.997Z,5.22
2023-04-04T20:12:58.388Z,8.05
2023-04-04T20:14:59.930Z,9.95
2023-04-04T20:17:01.723Z,8.43
2023-04-04T20:19:10.228Z,7.38
2023-04-04T20:21:19.479Z,6.40
2023-04-04T20:23:25.364Z,5.35
2023-04-04T20:25:45.416Z,4.35
2023-04-04T20:27:54.239Z,4.50
2023-04-04T20:29:55.997Z,3.70
2023-04-04T20:32:03.268Z,3.30
2023-04-04T20:34:07.331Z,3.05
2023-04-04T20:36:09.057Z,2.92
2023-04-04T20:38:11.057Z,3.00
2023-04-04T20:40:14.496Z,2.70
2023-04-04T20:42:19.132Z,2.72
2023-04-04T20:44:20.971Z,3.25
2023-04-04T20:46:24.950Z,3.20
2023-04-04T20:48:40.115Z,3.40
2023-04-04T20:50:44.027Z,2.97
2023-04-04T20:52:49.042Z,2.60
2023-04-04T20:54:50.840Z,3.17
2023-04-04T20:56:53.044Z,2.95
2023-04-04T20:58:54.707Z,3.00
2023-04-04T21:00:58.637Z,2.90
2023-04-04T21:03:07.316Z,3.33
2023-04-04T21:05:26.553Z,3.25
2023-04-04T21:07:41.717Z,3.17
2023-04-04T21:09:49.532Z,2.65
2023-04-04T21:11:51.466Z,3.10
2023-04-04T21:13:52.985Z,3.30
2023-04-04T21:16:03.247Z,3.70
2023-04-04T21:18:10.264Z,3.80
2023-04-04T21:20:39.020Z,3.10
2023-04-04T21:22:40.871Z,3.00
2023-04-04T21:24:45.115Z,2.90
2023-04-04T21:26:46.818Z,2.72
2023-04-04T21:28:48.849Z,2.30
2023-04-04T21:30:50.351Z,2.50
2023-04-04T21:32:53.422Z,2.35
2023-04-04T21:34:54.868Z,2.33
2023-04-04T21:37:05.258Z,2.58
2023-04-04T21:39:10.868Z,2.80
2023-04-04T21:41:30.216Z,3.22
2023-04-04T21:43:34.602Z,3.25
2023-04-04T21:45:36.139Z,3.58
2023-04-04T21:47:37.604Z,3.92
2023-04-04T21:49:42.137Z,3.58
2023-04-04T21:51:43.608Z,3.28
2023-04-04T21:53:45.731Z,3.00
2023-04-04T21:55:47.171Z,3.40
2023-04-04T21:57:48.650Z,2.47
2023-04-04T21:59:53.103Z,2.88
2023-04-04T22:01:54.693Z,2.65
2023-04-04T22:03:56.946Z,2.22
2023-04-04T22:05:58.505Z,2.40
2023-04-04T22:08:00.143Z,2.90
2023-04-04T22:10:04.309Z,2.63
2023-04-04T22:12:07.727Z,2.58
2023-04-04T22:14:09.168Z,2.75
2023-04-04T22:16:10.684Z,2.08
2023-04-04T22:18:17.009Z,2.30
2023-04-04T22:20:18.480Z,1.90
2023-04-04T22:22:19.912Z,2.10
2023-04-04T22:24:21.584Z,2.33
2023-04-04T22:26:32.128Z,2.10
2023-04-04T22:28:37.203Z,2.83
2023-04-04T22:30:41.435Z,3.55
2023-04-04T22:32:48.453Z,3.65
2023-04-04T22:34:52.687Z,3.70
2023-04-04T22:36:54.788Z,3.42
2023-04-04T22:38:57.147Z,2.80
2023-04-04T22:41:02.124Z,2.90
2023-04-04T22:43:03.585Z,2.47
2023-04-04T22:45:05.533Z,2.25
2023-04-04T22:47:07.796Z,2.05
2023-04-04T22:49:09.256Z,1.88
2023-04-04T22:51:15.159Z,1.90
2023-04-04T22:53:26.968Z,1.83
2023-04-04T22:55:29.189Z,1.88
2023-04-04T22:57:30.740Z,1.83
2023-04-04T22:59:32.243Z,2.10
2023-04-04T23:01:34.014Z,1.98
2023-04-04T23:03:40.927Z,2.05
2023-04-04T23:05:42.608Z,1.90
2023-04-04T23:07:45.636Z,2.08
2023-04-04T23:09:48.071Z,1.73
2023-04-04T23:11:50.019Z,2.22
2023-04-04T23:13:59.262Z,1.80
2023-04-04T23:16:06.607Z,1.67
2023-04-04T23:18:09.047Z,1.90
2023-04-04T23:20:10.516Z,2.00
2023-04-04T23:22:14.959Z,1.75
2023-04-04T23:24:16.730Z,1.95
2023-04-04T23:26:18.162Z,1.83
2023-04-04T23:28:23.300Z,2.00
2023-04-04T23:30:25.453Z,2.00
2023-04-04T23:32:29.562Z,2.10
2023-04-04T23:34:31.057Z,2.13
2023-04-04T23:36:32.660Z,1.98
2023-04-04T23:38:34.244Z,1.95
2023-04-04T23:40:41.550Z,2.05
2023-04-04T23:42:43.668Z,1.77
2023-04-04T23:44:45.680Z,2.30
2023-04-04T23:46:47.608Z,2.40
2023-04-04T23:48:49.313Z,2.25
2023-04-04T23:50:56.700Z,2.10
2023-04-04T23:52:58.250Z,1.85
2023-04-04T23:54:59.765Z,1.80
2023-04-04T23:57:01.511Z,1.65
2023-04-04T23:59:03.744Z,2.00
